Scandinavia, Wisconsin
Current Conditions -  °F | °C
As of 7:55 AM on Monday 20 Oct 2014 (Local Time) from KPCZ Reporting Station
Broken Clouds Broken Clouds  
Wind Chill: 45°   Ceiling: 5000
Heat Index: 48°   Visibility: 10mi
Dew Point: 45°   Wind: 8mph
Humidity: 87%   Direction: 320°NW
Pressure: 29.85"   Gusts: NA
Location:  44.46°N, 89.15°W
Report Text: KPCZ 201255Z AUTO 32007KT 10SM BKN050 09/07 A2985 RMK AO2 T00900070
Loading
Personal Weather Stations






























Interactive Weather Map
Tropical Storm Tracking
New forecast layout! Learn more

10-Day Weather Forecast

Advertisements
Track Severe Weather on mobile